Time;durP1;ratioP1;P1;durP2;ratioP2;P2;SDS_P1;SDS_P2;PMS_P1;PMS_P2;Temp;Humidity;BMP_temperature;BMP_pressure;BME280_temperature;BME280_humidity;BME280_pressure;Samples;Min_cycle;Max_cycle;Signal;HPM_P1;HPM_P2
2024/01/19 00:00:01;;;;;;;;;49.75;46.75;;;;;-144.24;100.00;114865.94;5058511;28;45389;-72
2024/01/19 00:02:26;;;;;;;;;60.00;47.50;;;;;-144.24;100.00;114865.94;5074990;28;45943;-73
2024/01/19 00:04:52;;;;;;;;;55.00;44.00;;;;;-144.24;100.00;114865.94;5066390;28;67803;-73
2024/01/19 00:07:17;;;;;;;;;55.50;45.50;;;;;-144.24;100.00;114865.94;5069505;28;47030;-73
2024/01/19 00:09:42;;;;;;;;;54.00;44.75;;;;;-144.24;100.00;114865.94;5071519;28;63660;-72
2024/01/19 00:12:08;;;;;;;;;54.50;44.75;;;;;-144.24;100.00;114865.94;5076755;28;54046;-77
2024/01/19 00:14:33;;;;;;;;;42.25;42.00;;;;;-144.24;100.00;114865.94;5065610;28;47025;-72
2024/01/19 00:16:59;;;;;;;;;57.25;43.75;;;;;-144.24;100.00;114865.94;5076557;28;55394;-74
2024/01/19 00:19:24;;;;;;;;;43.00;36.50;;;;;-144.24;100.00;114865.94;5075117;28;61523;-73
2024/01/19 00:21:49;;;;;;;;;50.75;37.00;;;;;-144.24;100.00;114865.94;5056827;28;46181;-73
2024/01/19 00:24:15;;;;;;;;;53.25;37.50;;;;;-144.24;100.00;114865.94;5048099;28;45308;-73
2024/01/19 00:26:42;;;;;;;;;41.75;40.25;;;;;-144.24;100.00;114865.94;5075787;28;60775;-75
2024/01/19 00:29:07;;;;;;;;;42.00;36.75;;;;;-144.24;100.00;114865.94;5076791;28;45181;-73
2024/01/19 00:31:34;;;;;;;;;45.75;39.75;;;;;-144.24;100.00;114865.94;5071644;28;60240;-72
2024/01/19 00:33:59;;;;;;;;;46.50;36.50;;;;;-144.24;100.00;114865.94;5075595;28;45186;-76
2024/01/19 00:36:25;;;;;;;;;51.25;45.50;;;;;-144.24;100.00;114865.94;5071464;28;67010;-74
2024/01/19 00:38:51;;;;;;;;;47.75;33.50;;;;;-144.24;100.00;114865.94;5074541;28;45382;-73
2024/01/19 00:41:16;;;;;;;;;43.50;34.00;;;;;-144.24;100.00;114865.94;5074318;28;46153;-72
2024/01/19 00:43:42;;;;;;;;;53.25;40.00;;;;;-144.24;100.00;114865.94;5076234;28;45430;-72
2024/01/19 00:46:07;;;;;;;;;46.00;36.75;;;;;-144.24;100.00;114865.94;5067434;28;66113;-76
2024/01/19 00:48:32;;;;;;;;;53.00;42.00;;;;;-144.24;100.00;114865.94;5075712;28;59247;-71
2024/01/19 00:50:58;;;;;;;;;8.25;8.25;;;;;-144.24;100.00;114865.94;5051815;28;45889;-73
2024/01/19 00:53:23;;;;;;;;;46.50;36.75;;;;;-144.24;100.00;114865.94;5075544;27;69496;-73
2024/01/19 00:55:48;;;;;;;;;39.00;36.00;;;;;-144.24;100.00;114865.94;5074306;28;66292;-72
2024/01/19 00:58:15;;;;;;;;;46.75;39.00;;;;;-144.24;100.00;114865.94;5074383;28;45323;-72
2024/01/19 01:00:40;;;;;;;;;45.25;40.25;;;;;-144.24;100.00;114865.94;5069143;28;45804;-71
2024/01/19 01:03:05;;;;;;;;;45.50;39.50;;;;;-144.24;100.00;114865.94;5065954;28;63598;-73
2024/01/19 01:05:31;;;;;;;;;50.75;38.50;;;;;-144.24;100.00;114865.94;5073192;28;45619;-73
2024/01/19 01:07:56;;;;;;;;;49.75;38.75;;;;;-144.24;100.00;114865.94;5075575;28;45632;-72
2024/01/19 01:10:21;;;;;;;;;42.75;40.75;;;;;-144.24;100.00;114865.94;5075819;28;46699;-72
2024/01/19 01:12:47;;;;;;;;;45.50;41.50;;;;;-144.24;100.00;114865.94;5076165;28;69176;-72
2024/01/19 01:15:12;;;;;;;;;36.00;24.00;;;;;-144.24;100.00;114865.94;5073408;28;45461;-73
2024/01/19 01:17:37;;;;;;;;;59.00;46.25;;;;;-144.24;100.00;114865.94;5056330;28;45432;-73
2024/01/19 01:20:03;;;;;;;;;48.75;36.25;;;;;-144.24;100.00;114865.94;5069657;28;66135;-72
2024/01/19 01:22:29;;;;;;;;;41.75;32.75;;;;;-144.24;100.00;114865.94;5073608;28;45446;-73
2024/01/19 01:24:54;;;;;;;;;43.75;42.00;;;;;-144.24;100.00;114865.94;5078251;28;45342;-74
2024/01/19 01:27:19;;;;;;;;;48.25;42.50;;;;;-144.24;100.00;114865.94;5039477;28;51988;-73
2024/01/19 01:29:44;;;;;;;;;36.25;35.00;;;;;-144.24;100.00;114865.94;5074967;28;71071;-72
2024/01/19 01:32:11;;;;;;;;;64.00;47.50;;;;;-144.24;100.00;114865.94;5066848;28;70218;-73
2024/01/19 01:34:36;;;;;;;;;63.00;46.25;;;;;-144.24;100.00;114865.94;5075339;28;45441;-74
2024/01/19 01:37:01;;;;;;;;;59.50;45.75;;;;;-144.24;100.00;114865.94;5071018;28;45592;-71
2024/01/19 01:39:27;;;;;;;;;58.00;43.50;;;;;-144.24;100.00;114865.94;5067849;28;71859;-73
2024/01/19 01:41:52;;;;;;;;;62.75;50.00;;;;;-144.24;100.00;114865.94;5076559;28;70767;-73
2024/01/19 01:44:17;;;;;;;;;56.25;46.75;;;;;-144.24;100.00;114865.94;5075026;28;66742;-72
2024/01/19 01:46:43;;;;;;;;;49.75;39.75;;;;;-144.24;100.00;114865.94;5072503;28;58920;-73
2024/01/19 01:49:08;;;;;;;;;53.25;45.00;;;;;-144.24;100.00;114865.94;5075239;28;54456;-75
2024/01/19 01:51:33;;;;;;;;;56.00;47.50;;;;;-144.24;100.00;114865.94;5074719;28;45443;-72
2024/01/19 01:54:00;;;;;;;;;44.25;41.75;;;;;-144.24;100.00;114865.94;5070126;27;52929;-73
2024/01/19 01:56:27;;;;;;;;;48.25;43.00;;;;;-144.24;100.00;114865.94;5055722;28;45469;-73
2024/01/19 01:58:53;;;;;;;;;44.75;36.00;;;;;-144.24;100.00;114865.94;5069209;28;47544;-73
2024/01/19 02:01:18;;;;;;;;;50.50;40.00;;;;;-144.24;100.00;114865.94;5068869;28;46493;-73
2024/01/19 02:03:44;;;;;;;;;33.25;31.50;;;;;-144.24;100.00;114865.94;5068203;28;69263;-74
2024/01/19 02:06:10;;;;;;;;;47.25;38.75;;;;;-144.24;100.00;114865.94;5069176;28;64297;-73
2024/01/19 02:08:35;;;;;;;;;45.50;37.00;;;;;-144.24;100.00;114865.94;5067684;28;68024;-73
2024/01/19 02:11:01;;;;;;;;;53.00;34.00;;;;;-144.24;100.00;114865.94;5073338;28;68180;-72
2024/01/19 02:13:26;;;;;;;;;34.25;29.75;;;;;-144.24;100.00;114865.94;5058711;28;45465;-74
2024/01/19 02:15:52;;;;;;;;;38.50;32.75;;;;;-144.24;100.00;114865.94;5073380;28;45343;-71
2024/01/19 02:18:17;;;;;;;;;41.25;34.75;;;;;-144.24;100.00;114865.94;5078771;28;45442;-73
2024/01/19 02:20:42;;;;;;;;;36.50;27.75;;;;;-144.24;100.00;114865.94;5077785;28;45469;-74
2024/01/19 02:23:12;;;;;;;;;39.00;32.00;;;;;-144.24;100.00;114865.94;5065627;28;68834;-73
2024/01/19 02:25:38;;;;;;;;;32.25;29.75;;;;;-144.24;100.00;114865.94;5073181;28;45471;-72
2024/01/19 02:28:03;;;;;;;;;39.50;33.00;;;;;-144.24;100.00;114865.94;5071125;28;69489;-72
2024/01/19 02:30:29;;;;;;;;;40.00;33.00;;;;;-144.24;100.00;114865.94;5051139;28;62833;-75
2024/01/19 02:32:54;;;;;;;;;38.00;29.75;;;;;-144.24;100.00;114865.94;5056844;28;63072;-73
2024/01/19 02:35:20;;;;;;;;;34.00;30.25;;;;;-144.24;100.00;114865.94;5065409;28;54680;-72
2024/01/19 02:37:45;;;;;;;;;36.25;32.75;;;;;-144.24;100.00;114865.94;5068906;28;72731;-73
2024/01/19 02:40:10;;;;;;;;;41.00;32.00;;;;;-144.24;100.00;114865.94;5066015;28;70538;-73
2024/01/19 02:42:36;;;;;;;;;40.25;33.50;;;;;-144.24;100.00;114865.94;5075698;28;45442;-72
2024/01/19 02:45:01;;;;;;;;;36.00;29.50;;;;;-144.24;100.00;114865.94;5075746;28;59553;-72
2024/01/19 02:47:27;;;;;;;;;24.50;23.75;;;;;-144.24;100.00;114865.94;5073147;28;45820;-75
2024/01/19 02:49:53;;;;;;;;;36.50;31.50;;;;;-144.24;100.00;114865.94;5069070;28;45342;-72
2024/01/19 02:52:18;;;;;;;;;42.75;34.50;;;;;-144.24;100.00;114865.94;5074175;28;45299;-74
2024/01/19 02:54:44;;;;;;;;;39.75;30.75;;;;;-144.24;100.00;114865.94;5074844;28;58486;-72
2024/01/19 02:57:09;;;;;;;;;36.00;30.25;;;;;-144.24;100.00;114865.94;5071990;28;46281;-74
2024/01/19 02:59:34;;;;;;;;;37.75;28.75;;;;;-144.24;100.00;114865.94;5053823;28;45406;-75
2024/01/19 03:02:00;;;;;;;;;34.75;28.50;;;;;-144.24;100.00;114865.94;5053018;28;66498;-72
2024/01/19 03:04:25;;;;;;;;;45.50;36.00;;;;;-144.24;100.00;114865.94;5055014;28;67298;-72
2024/01/19 03:06:50;;;;;;;;;37.50;35.75;;;;;-144.24;100.00;114865.94;5051627;28;46212;-72
2024/01/19 03:09:16;;;;;;;;;46.25;32.00;;;;;-144.24;100.00;114865.94;5066450;27;45311;-74
2024/01/19 03:11:41;;;;;;;;;44.50;37.75;;;;;-144.24;100.00;114865.94;5049593;28;54164;-73
2024/01/19 03:14:06;;;;;;;;;40.50;36.50;;;;;-144.24;100.00;114865.94;5054765;28;45418;-73
2024/01/19 03:16:32;;;;;;;;;44.00;32.75;;;;;-144.24;100.00;114865.94;5054140;28;57524;-74
2024/01/19 03:19:00;;;;;;;;;42.50;32.75;;;;;-144.24;100.00;114865.94;5051328;28;68719;-74
2024/01/19 03:21:25;;;;;;;;;42.25;34.50;;;;;-144.24;100.00;114865.94;5046841;28;45628;-74
2024/01/19 03:23:51;;;;;;;;;45.00;37.25;;;;;-144.24;100.00;114865.94;5049129;28;45475;-76
2024/01/19 03:26:16;;;;;;;;;44.25;32.75;;;;;-144.24;100.00;114865.94;5051243;28;73545;-72
2024/01/19 03:28:41;;;;;;;;;46.50;37.25;;;;;-144.24;100.00;114865.94;5054053;28;64587;-72
2024/01/19 03:31:07;;;;;;;;;45.50;38.50;;;;;-144.24;100.00;114865.94;5048866;28;45271;-72
2024/01/19 03:33:32;;;;;;;;;37.50;30.25;;;;;-144.24;100.00;114865.94;5055698;28;60758;-74
2024/01/19 03:35:57;;;;;;;;;36.50;28.50;;;;;-144.24;100.00;114865.94;5049638;28;45619;-75
2024/01/19 03:38:23;;;;;;;;;45.50;36.00;;;;;-144.24;100.00;114865.94;5053928;28;62871;-72
2024/01/19 03:40:49;;;;;;;;;37.25;33.25;;;;;-144.24;100.00;114865.94;5054731;28;45593;-77
2024/01/19 03:43:15;;;;;;;;;43.50;35.75;;;;;-144.24;100.00;114865.94;5043705;28;45375;-73
2024/01/19 03:45:40;;;;;;;;;36.00;31.00;;;;;-144.24;100.00;114865.94;5048712;28;45868;-75
2024/01/19 03:48:05;;;;;;;;;43.00;28.00;;;;;-144.24;100.00;114865.94;5055405;28;59615;-74
2024/01/19 03:50:31;;;;;;;;;42.00;37.25;;;;;-144.24;100.00;114865.94;5056553;28;45421;-73
2024/01/19 03:52:56;;;;;;;;;36.25;32.75;;;;;-144.24;100.00;114865.94;5050488;28;60063;-73
2024/01/19 03:55:21;;;;;;;;;35.50;30.50;;;;;-144.24;100.00;114865.94;5052397;28;71373;-72
2024/01/19 03:57:47;;;;;;;;;35.50;30.50;;;;;-144.24;100.00;114865.94;5054349;28;45432;-74
2024/01/19 04:00:12;;;;;;;;;38.25;35.00;;;;;-144.24;100.00;114865.94;5055737;28;66718;-74
2024/01/19 04:02:37;;;;;;;;;42.25;36.25;;;;;-144.24;100.00;114865.94;5052816;28;45498;-73
2024/01/19 04:05:03;;;;;;;;;35.75;34.25;;;;;-144.24;100.00;114865.94;5071853;28;73096;-73
2024/01/19 04:07:28;;;;;;;;;34.25;27.00;;;;;-144.24;100.00;114865.94;5069321;28;45300;-73
2024/01/19 04:09:54;;;;;;;;;45.25;35.50;;;;;-144.24;100.00;114865.94;5068803;28;66645;-71
2024/01/19 04:12:19;;;;;;;;;39.25;33.00;;;;;-144.24;100.00;114865.94;5071367;28;60643;-73
2024/01/19 04:14:45;;;;;;;;;49.00;33.75;;;;;-144.24;100.00;114865.94;5072352;28;45619;-72
2024/01/19 04:17:11;;;;;;;;;41.75;36.50;;;;;-144.24;100.00;114865.94;5074700;28;45351;-72
2024/01/19 04:19:37;;;;;;;;;36.25;33.00;;;;;-144.24;100.00;114865.94;5075280;28;62247;-72
2024/01/19 04:22:03;;;;;;;;;42.25;33.25;;;;;-144.24;100.00;114865.94;5053308;28;45321;-72
2024/01/19 04:24:28;;;;;;;;;40.25;34.00;;;;;-144.24;100.00;114865.94;5067024;28;45466;-72
2024/01/19 04:26:54;;;;;;;;;47.00;30.75;;;;;-144.24;100.00;114865.94;5056916;28;45378;-74
2024/01/19 04:29:19;;;;;;;;;43.25;33.00;;;;;-144.24;100.00;114865.94;5067436;28;66083;-74
2024/01/19 04:31:44;;;;;;;;;41.50;36.50;;;;;-144.24;100.00;114865.94;5068845;28;45594;-74
2024/01/19 04:34:10;;;;;;;;;33.00;27.75;;;;;-144.24;100.00;114865.94;5076717;28;71529;-71
2024/01/19 04:36:36;;;;;;;;;45.25;36.25;;;;;-144.24;100.00;114865.94;5078400;28;46619;-72
2024/01/19 04:39:01;;;;;;;;;38.00;33.50;;;;;-144.24;100.00;114865.94;5075523;28;66828;-73
2024/01/19 04:41:26;;;;;;;;;31.75;23.25;;;;;-144.24;100.00;114865.94;5073267;28;47297;-72
2024/01/19 04:43:52;;;;;;;;;36.00;29.00;;;;;-144.24;100.00;114865.94;5075072;28;69828;-72
2024/01/19 04:46:17;;;;;;;;;42.25;34.25;;;;;-144.24;100.00;114865.94;5072730;28;45392;-73
2024/01/19 04:48:42;;;;;;;;;39.75;32.50;;;;;-144.24;100.00;114865.94;5073322;28;60507;-75
2024/01/19 04:51:07;;;;;;;;;44.75;39.75;;;;;-144.24;100.00;114865.94;5066386;28;63636;-72
2024/01/19 04:53:33;;;;;;;;;33.00;29.50;;;;;-144.24;100.00;114865.94;5073076;28;74024;-72
2024/01/19 04:55:58;;;;;;;;;40.00;31.75;;;;;-144.24;100.00;114865.94;5071959;28;45527;-75
2024/01/19 04:58:23;;;;;;;;;37.00;30.00;;;;;-144.24;100.00;114865.94;5074928;28;65629;-72
2024/01/19 05:00:49;;;;;;;;;39.75;32.50;;;;;-144.24;100.00;114865.94;5068735;28;61269;-73
2024/01/19 05:03:15;;;;;;;;;36.00;29.00;;;;;-144.24;100.00;114865.94;5072779;28;54489;-72
2024/01/19 05:05:40;;;;;;;;;39.50;29.50;;;;;-144.24;100.00;114865.94;5071743;28;45680;-72
2024/01/19 05:08:06;;;;;;;;;36.50;33.00;;;;;-144.24;100.00;114865.94;5066240;28;61552;-71
2024/01/19 05:10:32;;;;;;;;;36.75;30.25;;;;;-144.24;100.00;114865.94;5066725;28;45638;-74
2024/01/19 05:12:57;;;;;;;;;55.25;36.50;;;;;-144.24;100.00;114865.94;5066147;28;47494;-73
2024/01/19 05:15:23;;;;;;;;;37.50;32.00;;;;;-144.24;100.00;114865.94;5054016;28;45348;-74
2024/01/19 05:17:48;;;;;;;;;44.75;39.75;;;;;-144.24;100.00;114865.94;5053971;28;63784;-73
2024/01/19 05:20:13;;;;;;;;;45.75;38.25;;;;;-144.24;100.00;114865.94;5074885;28;60859;-73
2024/01/19 05:22:39;;;;;;;;;37.25;32.50;;;;;-144.24;100.00;114865.94;5069111;28;46605;-72
2024/01/19 05:25:04;;;;;;;;;42.25;38.50;;;;;-144.24;100.00;114865.94;5067880;28;45445;-73
2024/01/19 05:27:30;;;;;;;;;43.50;35.00;;;;;-144.24;100.00;114865.94;5070365;28;45321;-72
2024/01/19 05:29:55;;;;;;;;;39.75;30.75;;;;;-144.24;100.00;114865.94;5070495;28;45308;-72
2024/01/19 05:32:21;;;;;;;;;35.00;30.75;;;;;-144.24;100.00;114865.94;5065345;28;46273;-72
2024/01/19 05:34:46;;;;;;;;;40.00;34.25;;;;;-144.24;100.00;114865.94;5067529;28;45463;-74
2024/01/19 05:37:11;;;;;;;;;37.50;25.50;;;;;-144.24;100.00;114865.94;5071698;28;53724;-72
2024/01/19 05:39:37;;;;;;;;;42.25;36.50;;;;;-144.24;100.00;114865.94;5066637;28;61531;-72
2024/01/19 05:42:02;;;;;;;;;45.00;34.00;;;;;-144.24;100.00;114865.94;5054839;28;46369;-76
2024/01/19 05:44:28;;;;;;;;;36.00;32.00;;;;;-144.24;100.00;114865.94;5065932;28;46349;-73
2024/01/19 05:46:53;;;;;;;;;39.00;34.25;;;;;-144.24;100.00;114865.94;5069233;28;66049;-72
2024/01/19 05:49:18;;;;;;;;;43.50;36.50;;;;;-144.24;100.00;114865.94;5066026;28;54232;-75
2024/01/19 05:51:44;;;;;;;;;42.50;27.75;;;;;-144.24;100.00;114865.94;5062302;28;63891;-75
2024/01/19 05:54:09;;;;;;;;;39.75;35.50;;;;;-144.24;100.00;114865.94;5071228;27;65768;-73
2024/01/19 05:56:34;;;;;;;;;40.50;31.50;;;;;-144.24;100.00;114865.94;5074659;28;59062;-73
2024/01/19 05:59:00;;;;;;;;;41.75;34.75;;;;;-144.24;100.00;114865.94;5070883;28;62074;-74
2024/01/19 06:01:25;;;;;;;;;52.25;39.00;;;;;-144.24;100.00;114865.94;5052343;28;46498;-74
2024/01/19 06:03:50;;;;;;;;;42.75;41.00;;;;;-144.24;100.00;114865.94;5068207;28;58375;-72
2024/01/19 06:06:16;;;;;;;;;51.25;38.00;;;;;-144.24;100.00;114865.94;5071704;28;67257;-75
2024/01/19 06:08:41;;;;;;;;;35.75;30.50;;;;;-144.24;100.00;114865.94;5077926;28;45616;-73
2024/01/19 06:11:06;;;;;;;;;55.50;38.00;;;;;-144.24;100.00;114865.94;5054997;28;73626;-73
2024/01/19 06:13:32;;;;;;;;;34.00;28.25;;;;;-144.24;100.00;114865.94;5075583;28;69313;-74
2024/01/19 06:15:57;;;;;;;;;45.00;30.50;;;;;-144.24;100.00;114865.94;5071534;28;68411;-73
2024/01/19 06:18:23;;;;;;;;;45.00;36.00;;;;;-144.24;100.00;114865.94;5074163;28;54599;-75
2024/01/19 06:20:48;;;;;;;;;44.25;38.25;;;;;-144.24;100.00;114865.94;5069117;28;65685;-73
2024/01/19 06:23:13;;;;;;;;;38.25;32.25;;;;;-144.24;100.00;114865.94;5067985;28;46599;-74
2024/01/19 06:25:39;;;;;;;;;45.25;38.50;;;;;-144.24;100.00;114865.94;5071738;28;45371;-73
2024/01/19 06:28:06;;;;;;;;;36.00;31.75;;;;;-144.24;100.00;114865.94;5075688;28;45469;-73
2024/01/19 06:30:31;;;;;;;;;47.50;35.00;;;;;-144.24;100.00;114865.94;5068671;28;46733;-73
2024/01/19 06:32:56;;;;;;;;;35.50;30.00;;;;;-144.24;100.00;114865.94;5077483;28;45186;-74
2024/01/19 06:35:22;;;;;;;;;33.50;31.50;;;;;-144.24;100.00;114865.94;5071146;28;59881;-73
2024/01/19 06:37:47;;;;;;;;;39.50;33.25;;;;;-144.24;100.00;114865.94;5066076;28;60657;-75
2024/01/19 06:40:14;;;;;;;;;43.00;34.50;;;;;-144.24;100.00;114865.94;5061186;28;67680;-73
2024/01/19 06:42:43;;;;;;;;;40.00;35.00;;;;;-144.24;100.00;114865.94;5064984;28;45477;-75
2024/01/19 06:45:09;;;;;;;;;47.25;41.00;;;;;-144.24;100.00;114865.94;5035561;28;45403;-76
2024/01/19 06:47:34;;;;;;;;;42.25;34.00;;;;;-144.24;100.00;114865.94;5073816;28;45288;-75
2024/01/19 06:49:59;;;;;;;;;45.00;36.00;;;;;-144.24;100.00;114865.94;5070798;28;56204;-73
2024/01/19 06:52:25;;;;;;;;;47.00;36.25;;;;;-144.24;100.00;114865.94;5071971;28;71869;-73
2024/01/19 06:54:50;;;;;;;;;41.00;35.25;;;;;-144.24;100.00;114865.94;5067544;28;62048;-73
2024/01/19 06:57:15;;;;;;;;;42.00;31.25;;;;;-144.24;100.00;114865.94;5070410;28;45474;-73
2024/01/19 06:59:41;;;;;;;;;40.75;28.50;;;;;-144.24;100.00;114865.94;5051976;28;71111;-74
2024/01/19 07:02:07;;;;;;;;;43.25;34.50;;;;;-144.24;100.00;114865.94;5066547;28;45667;-74
2024/01/19 07:04:32;;;;;;;;;33.75;32.50;;;;;-144.24;100.00;114865.94;5072339;28;45521;-73
2024/01/19 07:06:58;;;;;;;;;42.25;32.25;;;;;-144.24;100.00;114865.94;5068480;28;45487;-74
2024/01/19 07:09:23;;;;;;;;;46.00;33.00;;;;;-144.24;100.00;114865.94;5063936;28;45667;-73
2024/01/19 07:11:49;;;;;;;;;40.25;34.50;;;;;-144.24;100.00;114865.94;5071627;28;45493;-72
2024/01/19 07:14:14;;;;;;;;;43.00;33.25;;;;;-144.24;100.00;114865.94;5072272;28;62624;-72
2024/01/19 07:16:43;;;;;;;;;43.50;34.00;;;;;-144.24;100.00;114865.94;5071522;27;45503;-74
2024/01/19 07:19:09;;;;;;;;;42.00;34.50;;;;;-144.24;100.00;114865.94;5072194;28;47542;-72
2024/01/19 07:21:39;;;;;;;;;46.75;36.75;;;;;-144.24;100.00;114865.94;5070222;28;45476;-73
2024/01/19 07:24:06;;;;;;;;;34.75;28.00;;;;;-144.24;100.00;114865.94;5067043;28;45513;-78
2024/01/19 07:26:31;;;;;;;;;45.00;36.75;;;;;-144.24;100.00;114865.94;5061162;28;45607;-73
2024/01/19 07:28:57;;;;;;;;;12.75;7.75;;;;;-144.24;100.00;114865.94;5061133;28;68308;-73
2024/01/19 07:31:22;;;;;;;;;38.00;34.50;;;;;-144.24;100.00;114865.94;5066972;27;45908;-76
2024/01/19 07:33:47;;;;;;;;;49.00;37.00;;;;;-144.24;100.00;114865.94;5061056;27;54623;-77
2024/01/19 07:36:15;;;;;;;;;37.50;35.50;;;;;-144.24;100.00;114865.94;5063609;27;59750;-74
2024/01/19 07:38:40;;;;;;;;;45.25;34.25;;;;;-144.24;100.00;114865.94;5064122;28;46324;-74
2024/01/19 07:41:06;;;;;;;;;41.00;38.50;;;;;-144.24;100.00;114865.94;5064284;27;45444;-72
2024/01/19 07:43:31;;;;;;;;;39.75;35.00;;;;;-144.24;100.00;114865.94;5067547;28;45462;-72
2024/01/19 07:46:06;;;;;;;;;48.75;40.00;;;;;-144.24;100.00;114865.94;5071017;27;61888;-72
2024/01/19 07:48:31;;;;;;;;;46.75;40.75;;;;;-144.24;100.00;114865.94;5064991;27;47103;-72
2024/01/19 07:50:57;;;;;;;;;40.00;37.00;;;;;-144.24;100.00;114865.94;5079885;27;45382;-75
2024/01/19 07:53:22;;;;;;;;;45.25;37.50;;;;;-144.24;100.00;114865.94;5071429;27;45863;-70
2024/01/19 07:55:48;;;;;;;;;53.00;41.50;;;;;-144.24;100.00;114865.94;5069196;28;45528;-70
2024/01/19 07:58:13;;;;;;;;;59.50;43.50;;;;;-144.24;100.00;114865.94;5063663;28;72715;-69
2024/01/19 08:00:40;;;;;;;;;52.25;38.50;;;;;-144.24;100.00;114865.94;5067092;28;45657;-69
2024/01/19 08:03:05;;;;;;;;;53.00;39.75;;;;;-144.24;100.00;114865.94;5068193;28;58130;-69
2024/01/19 08:05:30;;;;;;;;;45.75;40.25;;;;;-144.24;100.00;114865.94;5065388;28;52345;-71
2024/01/19 08:07:56;;;;;;;;;51.50;38.75;;;;;-144.24;100.00;114865.94;5068064;28;65895;-72
2024/01/19 08:10:21;;;;;;;;;63.25;47.00;;;;;-144.24;100.00;114865.94;5065718;28;64175;-69
2024/01/19 08:12:46;;;;;;;;;62.50;46.75;;;;;-144.24;100.00;114865.94;5068564;28;62706;-70
2024/01/19 08:15:12;;;;;;;;;60.50;45.00;;;;;-144.24;100.00;114865.94;5070510;28;66330;-69
2024/01/19 08:17:37;;;;;;;;;49.50;43.00;;;;;-144.24;100.00;114865.94;5065227;28;46700;-70
2024/01/19 08:20:03;;;;;;;;;47.25;36.50;;;;;-144.24;100.00;114865.94;5071104;28;45544;-69
2024/01/19 08:22:28;;;;;;;;;53.00;44.25;;;;;-144.24;100.00;114865.94;5062261;27;45588;-72
2024/01/19 08:24:54;;;;;;;;;45.75;44.00;;;;;-144.24;100.00;114865.94;5070056;28;62706;-73
2024/01/19 08:27:19;;;;;;;;;51.25;40.25;;;;;-144.24;100.00;114865.94;5070631;27;72042;-70
2024/01/19 08:29:46;;;;;;;;;55.75;46.50;;;;;-144.24;100.00;114865.94;5050293;28;70516;-70
2024/01/19 08:32:11;;;;;;;;;56.00;44.00;;;;;-144.24;100.00;114865.94;5071839;27;45572;-74
2024/01/19 08:34:37;;;;;;;;;45.50;32.75;;;;;-144.24;100.00;114865.94;5070647;28;51120;-69
2024/01/19 08:37:02;;;;;;;;;53.50;45.00;;;;;-144.24;100.00;114865.94;5071719;28;73079;-69
2024/01/19 08:39:28;;;;;;;;;63.00;48.00;;;;;-144.24;100.00;114865.94;5073490;28;45414;-72
2024/01/19 08:41:53;;;;;;;;;53.75;48.00;;;;;-144.24;100.00;114865.94;5053907;28;58791;-70
2024/01/19 08:44:18;;;;;;;;;59.25;50.75;;;;;-144.24;100.00;114865.94;5069086;27;45573;-72
2024/01/19 08:46:44;;;;;;;;;57.75;40.50;;;;;-144.24;100.00;114865.94;5066917;28;62303;-70
2024/01/19 08:49:10;;;;;;;;;42.75;38.50;;;;;-144.24;100.00;114865.94;5070804;27;45474;-69
2024/01/19 08:51:36;;;;;;;;;51.50;44.00;;;;;-144.24;100.00;114865.94;5070700;28;45614;-73
2024/01/19 08:54:01;;;;;;;;;63.25;48.00;;;;;-144.24;100.00;114865.94;5071925;28;45510;-71
2024/01/19 08:56:27;;;;;;;;;65.75;49.25;;;;;-144.24;100.00;114865.94;5070825;27;65762;-71
2024/01/19 08:58:52;;;;;;;;;54.75;48.25;;;;;-144.24;100.00;114865.94;5069604;27;45703;-70
2024/01/19 09:01:18;;;;;;;;;66.75;49.50;;;;;-144.24;100.00;114865.94;5072214;27;67121;-71
2024/01/19 09:03:44;;;;;;;;;60.00;49.00;;;;;-144.24;100.00;114865.94;5052809;28;45600;-70
2024/01/19 09:06:09;;;;;;;;;69.75;51.50;;;;;-144.24;100.00;114865.94;5050331;22;46047;-70
2024/01/19 09:08:34;;;;;;;;;68.75;53.00;;;;;-144.24;100.00;114865.94;5041802;22;45410;-74
2024/01/19 09:11:00;;;;;;;;;56.00;48.00;;;;;-144.24;100.00;114865.94;5016440;28;65039;-69
2024/01/19 09:13:25;;;;;;;;;76.75;56.00;;;;;-144.24;100.00;114865.94;5057867;22;45558;-69
2024/01/19 09:15:53;;;;;;;;;71.50;54.00;;;;;-144.24;100.00;114865.94;5053710;28;73177;-69
2024/01/19 09:18:19;;;;;;;;;68.00;51.50;;;;;-144.24;100.00;114865.94;5064935;27;45556;-71
2024/01/19 09:20:44;;;;;;;;;71.00;52.00;;;;;-144.24;100.00;114865.94;5072326;27;45748;-70
2024/01/19 09:23:09;;;;;;;;;68.75;51.75;;;;;-144.24;100.00;114865.94;5069470;27;64987;-70
2024/01/19 09:25:35;;;;;;;;;54.50;45.25;;;;;-144.24;100.00;114865.94;5065962;27;70618;-73
2024/01/19 09:28:01;;;;;;;;;55.00;48.75;;;;;-144.24;100.00;114865.94;5057427;27;56831;-71
2024/01/19 09:30:26;;;;;;;;;72.50;53.00;;;;;-144.24;100.00;114865.94;5077838;27;45540;-71
2024/01/19 09:32:52;;;;;;;;;66.50;49.00;;;;;-144.24;100.00;114865.94;5074614;27;66045;-68
2024/01/19 09:35:18;;;;;;;;;70.75;50.50;;;;;-144.24;100.00;114865.94;5075301;27;45684;-72
2024/01/19 09:37:43;;;;;;;;;66.50;49.00;;;;;-144.24;100.00;114865.94;5068158;27;45526;-69
2024/01/19 09:40:09;;;;;;;;;65.00;48.25;;;;;-144.24;100.00;114865.94;5069761;27;45538;-69
2024/01/19 09:42:35;;;;;;;;;63.00;48.50;;;;;-144.24;100.00;114865.94;5066771;27;45623;-69
2024/01/19 09:45:04;;;;;;;;;74.25;54.25;;;;;-144.24;100.00;114865.94;5057021;27;51014;-70
2024/01/19 09:47:52;;;;;;;;;68.75;51.50;;;;;-144.24;100.00;114865.94;5070966;27;45627;-72
2024/01/19 09:50:19;;;;;;;;;61.25;49.50;;;;;-144.24;100.00;114865.94;5068267;27;45492;-70
2024/01/19 09:52:52;;;;;;;;;73.50;54.75;;;;;-144.24;100.00;114865.94;5059813;27;45634;-71
2024/01/19 09:55:19;;;;;;;;;75.00;58.00;;;;;-144.24;100.00;114865.94;5074619;27;46291;-70
2024/01/19 09:57:46;;;;;;;;;74.75;52.00;;;;;-144.24;100.00;114865.94;5076840;28;45472;-70
2024/01/19 10:00:16;;;;;;;;;70.50;56.50;;;;;-144.24;100.00;114865.94;5077980;27;45451;-71
2024/01/19 10:02:46;;;;;;;;;80.25;59.50;;;;;-144.24;100.00;114865.94;5074993;27;46074;-70
2024/01/19 10:05:13;;;;;;;;;70.75;55.75;;;;;-144.24;100.00;114865.94;5053966;28;46775;-70
2024/01/19 10:07:43;;;;;;;;;71.50;52.25;;;;;-144.24;100.00;114865.94;5199387;22;45561;-70
2024/01/19 10:10:09;;;;;;;;;67.50;52.00;;;;;-144.24;100.00;114865.94;5071108;27;45516;-70
2024/01/19 10:12:36;;;;;;;;;74.25;52.25;;;;;-144.24;100.00;114865.94;5068079;28;45618;-74
2024/01/19 10:15:01;;;;;;;;;63.25;50.75;;;;;-144.24;100.00;114865.94;5051999;28;47333;-73
2024/01/19 10:17:27;;;;;;;;;61.00;48.50;;;;;-144.24;100.00;114865.94;5067355;28;66833;-70
2024/01/19 10:19:53;;;;;;;;;63.50;49.75;;;;;-144.24;100.00;114865.94;5070330;27;46211;-71
2024/01/19 10:22:26;;;;;;;;;70.75;49.75;;;;;-144.24;100.00;114865.94;5069167;28;57645;-71
2024/01/19 10:25:18;;;;;;;;;61.25;48.00;;;;;-144.24;100.00;114865.94;5067338;28;46556;-73
2024/01/19 10:27:45;;;;;;;;;65.75;50.50;;;;;-144.24;100.00;114865.94;5052080;28;45926;-72
2024/01/19 10:30:17;;;;;;;;;67.75;50.00;;;;;-144.24;100.00;114865.94;5070373;27;45631;-72
2024/01/19 10:32:44;;;;;;;;;70.75;52.50;;;;;-144.24;100.00;114865.94;5070376;28;45623;-69
2024/01/19 10:35:12;;;;;;;;;66.25;52.25;;;;;-144.24;100.00;114865.94;5069609;28;45679;-73
2024/01/19 10:37:37;;;;;;;;;61.00;47.25;;;;;-144.24;100.00;114865.94;5054849;28;45690;-69
2024/01/19 10:40:18;;;;;;;;;72.00;54.25;;;;;-144.24;100.00;114865.94;5049563;28;45433;-71